sensor_id;sensor_type;location;lat;lon;timestamp;P1;durP1;ratioP1;P2;durP2;ratioP2
68375;SDS011;55318;52.068;5.188;2023-10-19T00:01:13;10.3;;;6.4;;
68375;SDS011;55318;52.068;5.188;2023-10-19T00:02:50;7.7;;;5.4;;
68375;SDS011;55318;52.068;5.188;2023-10-19T00:04:27;9.1;;;6.5;;
68375;SDS011;55318;52.068;5.188;2023-10-19T00:07:39;9.0;;;6.3;;
68375;SDS011;55318;52.068;5.188;2023-10-19T00:09:15;7.6;;;5.6;;
68375;SDS011;55318;52.068;5.188;2023-10-19T00:10:52;7.5;;;5.5;;
68375;SDS011;55318;52.068;5.188;2023-10-19T00:14:05;9.6;;;6.6;;
68375;SDS011;55318;52.068;5.188;2023-10-19T00:15:42;8.31;;;6.0;;
68375;SDS011;55318;52.068;5.188;2023-10-19T00:17:19;8.31;;;6.4;;
68375;SDS011;55318;52.068;5.188;2023-10-19T00:18:55;10.3;;;6.5;;
68375;SDS011;55318;52.068;5.188;2023-10-19T00:22:07;9.31;;;6.0;;
68375;SDS011;55318;52.068;5.188;2023-10-19T00:23:43;8.81;;;6.9;;
68375;SDS011;55318;52.068;5.188;2023-10-19T00:25:20;9.6;;;6.9;;
68375;SDS011;55318;52.068;5.188;2023-10-19T00:28:33;8.9;;;6.7;;
68375;SDS011;55318;52.068;5.188;2023-10-19T00:30:09;8.4;;;6.1;;
68375;SDS011;55318;52.068;5.188;2023-10-19T00:31:46;10.1;;;6.9;;
68375;SDS011;55318;52.068;5.188;2023-10-19T00:34:58;10.21;;;6.9;;
68375;SDS011;55318;52.068;5.188;2023-10-19T00:36:34;10.3;;;6.7;;
68375;SDS011;55318;52.068;5.188;2023-10-19T00:38:10;10.4;;;7.6;;
68375;SDS011;55318;52.068;5.188;2023-10-19T00:39:46;10.9;;;7.1;;
68375;SDS011;55318;52.068;5.188;2023-10-19T00:43:02;10.7;;;7.0;;
68375;SDS011;55318;52.068;5.188;2023-10-19T00:44:39;12.1;;;6.8;;
68375;SDS011;55318;52.068;5.188;2023-10-19T00:46:16;10.9;;;7.3;;
68375;SDS011;55318;52.068;5.188;2023-10-19T00:51:07;11.6;;;7.7;;
68375;SDS011;55318;52.068;5.188;2023-10-19T00:52:43;10.8;;;7.5;;
68375;SDS011;55318;52.068;5.188;2023-10-19T00:56:01;12.5;;;7.7;;
68375;SDS011;55318;52.068;5.188;2023-10-19T00:57:38;10.3;;;7.3;;
68375;SDS011;55318;52.068;5.188;2023-10-19T00:59:18;11.0;;;8.0;;
68375;SDS011;55318;52.068;5.188;2023-10-19T01:00:55;9.81;;;7.1;;
68375;SDS011;55318;52.068;5.188;2023-10-19T01:04:07;12.3;;;8.1;;
68375;SDS011;55318;52.068;5.188;2023-10-19T01:05:43;11.6;;;8.1;;
68375;SDS011;55318;52.068;5.188;2023-10-19T01:07:19;11.1;;;7.8;;
68375;SDS011;55318;52.068;5.188;2023-10-19T01:10:32;11.0;;;7.4;;
68375;SDS011;55318;52.068;5.188;2023-10-19T01:12:08;12.5;;;7.5;;
68375;SDS011;55318;52.068;5.188;2023-10-19T01:13:44;11.5;;;7.8;;
68375;SDS011;55318;52.068;5.188;2023-10-19T01:15:21;11.5;;;7.8;;
68375;SDS011;55318;52.068;5.188;2023-10-19T01:18:34;10.0;;;7.3;;
68375;SDS011;55318;52.068;5.188;2023-10-19T01:20:11;12.1;;;8.2;;
68375;SDS011;55318;52.068;5.188;2023-10-19T01:21:48;10.21;;;7.8;;
68375;SDS011;55318;52.068;5.188;2023-10-19T01:25:03;11.3;;;8.1;;
68375;SDS011;55318;52.068;5.188;2023-10-19T01:26:40;14.0;;;8.9;;
68375;SDS011;55318;52.068;5.188;2023-10-19T01:28:16;12.7;;;9.1;;
68375;SDS011;55318;52.068;5.188;2023-10-19T01:31:29;11.5;;;7.3;;
68375;SDS011;55318;52.068;5.188;2023-10-19T01:33:05;11.2;;;8.0;;
68375;SDS011;55318;52.068;5.188;2023-10-19T01:34:41;12.0;;;8.5;;
68375;SDS011;55318;52.068;5.188;2023-10-19T01:36:17;10.9;;;8.5;;
68375;SDS011;55318;52.068;5.188;2023-10-19T01:39:30;11.7;;;8.4;;
68375;SDS011;55318;52.068;5.188;2023-10-19T01:41:07;11.8;;;8.2;;
68375;SDS011;55318;52.068;5.188;2023-10-19T01:42:45;10.9;;;8.1;;
68375;SDS011;55318;52.068;5.188;2023-10-19T01:45:57;11.6;;;8.1;;
68375;SDS011;55318;52.068;5.188;2023-10-19T01:47:34;12.8;;;8.4;;
68375;SDS011;55318;52.068;5.188;2023-10-19T01:49:10;15.2;;;8.71;;
68375;SDS011;55318;52.068;5.188;2023-10-19T01:52:22;13.0;;;8.5;;
68375;SDS011;55318;52.068;5.188;2023-10-19T01:53:59;11.3;;;8.0;;
68375;SDS011;55318;52.068;5.188;2023-10-19T01:55:36;10.21;;;7.1;;
68375;SDS011;55318;52.068;5.188;2023-10-19T01:57:13;14.4;;;8.4;;
68375;SDS011;55318;52.068;5.188;2023-10-19T02:00:26;11.6;;;7.5;;
68375;SDS011;55318;52.068;5.188;2023-10-19T02:02:02;10.5;;;7.5;;
68375;SDS011;55318;52.068;5.188;2023-10-19T02:03:38;14.1;;;8.6;;
68375;SDS011;55318;52.068;5.188;2023-10-19T02:06:51;12.5;;;7.1;;
68375;SDS011;55318;52.068;5.188;2023-10-19T02:08:27;13.0;;;8.1;;
68375;SDS011;55318;52.068;5.188;2023-10-19T02:10:04;11.7;;;8.4;;
68375;SDS011;55318;52.068;5.188;2023-10-19T02:13:17;11.5;;;7.5;;
68375;SDS011;55318;52.068;5.188;2023-10-19T02:14:53;11.8;;;7.8;;
68375;SDS011;55318;52.068;5.188;2023-10-19T02:16:29;11.4;;;7.1;;
68375;SDS011;55318;52.068;5.188;2023-10-19T02:18:05;12.3;;;7.9;;
68375;SDS011;55318;52.068;5.188;2023-10-19T02:21:18;10.9;;;7.5;;
68375;SDS011;55318;52.068;5.188;2023-10-19T02:22:55;11.4;;;6.7;;
68375;SDS011;55318;52.068;5.188;2023-10-19T02:24:32;11.4;;;6.4;;
68375;SDS011;55318;52.068;5.188;2023-10-19T02:27:44;10.1;;;6.7;;
68375;SDS011;55318;52.068;5.188;2023-10-19T02:29:20;9.31;;;6.8;;
68375;SDS011;55318;52.068;5.188;2023-10-19T02:30:56;9.81;;;7.0;;
68375;SDS011;55318;52.068;5.188;2023-10-19T02:34:10;9.0;;;6.3;;
68375;SDS011;55318;52.068;5.188;2023-10-19T02:35:48;9.6;;;5.6;;
68375;SDS011;55318;52.068;5.188;2023-10-19T02:37:24;8.6;;;6.2;;
68375;SDS011;55318;52.068;5.188;2023-10-19T02:39:01;8.2;;;6.3;;
68375;SDS011;55318;52.068;5.188;2023-10-19T02:42:15;9.31;;;5.9;;
68375;SDS011;55318;52.068;5.188;2023-10-19T02:43:51;7.6;;;5.4;;
68375;SDS011;55318;52.068;5.188;2023-10-19T02:45:27;8.2;;;5.7;;
68375;SDS011;55318;52.068;5.188;2023-10-19T02:48:39;7.4;;;5.2;;
68375;SDS011;55318;52.068;5.188;2023-10-19T02:50:15;9.21;;;5.7;;
68375;SDS011;55318;52.068;5.188;2023-10-19T02:51:52;9.81;;;5.9;;
68375;SDS011;55318;52.068;5.188;2023-10-19T02:55:05;8.6;;;5.9;;
68375;SDS011;55318;52.068;5.188;2023-10-19T02:56:42;7.8;;;5.5;;
68375;SDS011;55318;52.068;5.188;2023-10-19T02:58:18;7.4;;;5.6;;
68375;SDS011;55318;52.068;5.188;2023-10-19T03:01:31;7.9;;;5.5;;
68375;SDS011;55318;52.068;5.188;2023-10-19T03:03:07;11.2;;;5.5;;
68375;SDS011;55318;52.068;5.188;2023-10-19T03:04:43;9.71;;;5.7;;
68375;SDS011;55318;52.068;5.188;2023-10-19T03:06:20;9.1;;;5.5;;
68375;SDS011;55318;52.068;5.188;2023-10-19T03:09:33;9.1;;;5.5;;
68375;SDS011;55318;52.068;5.188;2023-10-19T03:11:09;8.0;;;5.4;;
68375;SDS011;55318;52.068;5.188;2023-10-19T03:12:45;9.1;;;6.0;;
68375;SDS011;55318;52.068;5.188;2023-10-19T03:15:57;10.0;;;6.2;;
68375;SDS011;55318;52.068;5.188;2023-10-19T03:17:33;8.5;;;5.3;;
68375;SDS011;55318;52.068;5.188;2023-10-19T03:19:10;8.4;;;5.0;;
68375;SDS011;55318;52.068;5.188;2023-10-19T03:22:22;8.5;;;5.4;;
68375;SDS011;55318;52.068;5.188;2023-10-19T03:23:58;9.0;;;5.7;;
68375;SDS011;55318;52.068;5.188;2023-10-19T03:25:34;6.8;;;4.61;;
68375;SDS011;55318;52.068;5.188;2023-10-19T03:27:11;9.21;;;5.7;;
68375;SDS011;55318;52.068;5.188;2023-10-19T03:30:24;7.1;;;4.41;;
68375;SDS011;55318;52.068;5.188;2023-10-19T03:32:01;6.4;;;3.9;;
68375;SDS011;55318;52.068;5.188;2023-10-19T03:33:37;6.2;;;4.1;;
68375;SDS011;55318;52.068;5.188;2023-10-19T03:36:49;6.8;;;4.1;;
68375;SDS011;55318;52.068;5.188;2023-10-19T03:38:25;6.3;;;4.2;;
68375;SDS011;55318;52.068;5.188;2023-10-19T03:40:01;6.1;;;4.0;;
68375;SDS011;55318;52.068;5.188;2023-10-19T03:43:14;7.7;;;4.41;;
68375;SDS011;55318;52.068;5.188;2023-10-19T03:44:51;6.5;;;3.6;;
68375;SDS011;55318;52.068;5.188;2023-10-19T03:46:27;5.7;;;3.2;;
68375;SDS011;55318;52.068;5.188;2023-10-19T03:48:03;5.4;;;4.2;;
68375;SDS011;55318;52.068;5.188;2023-10-19T03:51:16;5.4;;;3.7;;
68375;SDS011;55318;52.068;5.188;2023-10-19T03:52:52;4.1;;;3.2;;
68375;SDS011;55318;52.068;5.188;2023-10-19T03:54:28;5.5;;;3.3;;
68375;SDS011;55318;52.068;5.188;2023-10-19T03:57:41;5.6;;;3.1;;
68375;SDS011;55318;52.068;5.188;2023-10-19T03:59:16;6.8;;;3.0;;
68375;SDS011;55318;52.068;5.188;2023-10-19T04:00:53;4.41;;;2.7;;
68375;SDS011;55318;52.068;5.188;2023-10-19T04:04:05;3.6;;;2.8;;
68375;SDS011;55318;52.068;5.188;2023-10-19T04:05:41;2.8;;;2.21;;
68375;SDS011;55318;52.068;5.188;2023-10-19T04:07:17;5.4;;;3.3;;
68375;SDS011;55318;52.068;5.188;2023-10-19T04:10:30;3.6;;;2.1;;
68375;SDS011;55318;52.068;5.188;2023-10-19T04:12:06;4.91;;;2.8;;
68375;SDS011;55318;52.068;5.188;2023-10-19T04:13:42;4.1;;;2.31;;
68375;SDS011;55318;52.068;5.188;2023-10-19T04:15:19;2.5;;;2.0;;
68375;SDS011;55318;52.068;5.188;2023-10-19T04:18:31;5.5;;;2.31;;
68375;SDS011;55318;52.068;5.188;2023-10-19T04:20:07;3.0;;;1.8;;
68375;SDS011;55318;52.068;5.188;2023-10-19T04:21:45;3.2;;;1.5;;
68375;SDS011;55318;52.068;5.188;2023-10-19T04:24:58;5.3;;;2.0;;
68375;SDS011;55318;52.068;5.188;2023-10-19T04:26:34;3.2;;;1.8;;
68375;SDS011;55318;52.068;5.188;2023-10-19T04:28:10;8.31;;;2.0;;
68375;SDS011;55318;52.068;5.188;2023-10-19T04:31:24;2.9;;;1.4;;
68375;SDS011;55318;52.068;5.188;2023-10-19T04:33:00;3.2;;;1.11;;
68375;SDS011;55318;52.068;5.188;2023-10-19T04:34:36;4.3;;;1.9;;
68375;SDS011;55318;52.068;5.188;2023-10-19T04:36:13;2.6;;;1.3;;
68375;SDS011;55318;52.068;5.188;2023-10-19T04:39:27;1.7;;;1.2;;
68375;SDS011;55318;52.068;5.188;2023-10-19T04:41:04;3.3;;;1.7;;
68375;SDS011;55318;52.068;5.188;2023-10-19T04:42:40;1.5;;;0.9;;
68375;SDS011;55318;52.068;5.188;2023-10-19T04:45:53;2.0;;;1.2;;
68375;SDS011;55318;52.068;5.188;2023-10-19T04:47:29;2.21;;;1.0;;
68375;SDS011;55318;52.068;5.188;2023-10-19T04:49:05;2.31;;;0.9;;
68375;SDS011;55318;52.068;5.188;2023-10-19T04:52:17;2.31;;;0.8;;
68375;SDS011;55318;52.068;5.188;2023-10-19T04:53:53;2.7;;;0.8;;
68375;SDS011;55318;52.068;5.188;2023-10-19T04:55:29;2.1;;;0.9;;
68375;SDS011;55318;52.068;5.188;2023-10-19T04:57:06;4.8;;;1.8;;
68375;SDS011;55318;52.068;5.188;2023-10-19T05:00:18;2.6;;;1.2;;
68375;SDS011;55318;52.068;5.188;2023-10-19T05:01:55;2.4;;;1.11;;
68375;SDS011;55318;52.068;5.188;2023-10-19T05:03:31;1.4;;;0.9;;
68375;SDS011;55318;52.068;5.188;2023-10-19T05:06:44;2.4;;;1.0;;
68375;SDS011;55318;52.068;5.188;2023-10-19T05:08:20;2.7;;;1.0;;
68375;SDS011;55318;52.068;5.188;2023-10-19T05:09:56;1.3;;;1.0;;
68375;SDS011;55318;52.068;5.188;2023-10-19T05:13:09;3.6;;;1.11;;
68375;SDS011;55318;52.068;5.188;2023-10-19T05:14:45;2.4;;;0.7;;
68375;SDS011;55318;52.068;5.188;2023-10-19T05:16:21;2.7;;;1.2;;
68375;SDS011;55318;52.068;5.188;2023-10-19T05:19:33;4.2;;;1.11;;
68375;SDS011;55318;52.068;5.188;2023-10-19T05:21:10;3.2;;;1.3;;
68375;SDS011;55318;52.068;5.188;2023-10-19T05:22:47;3.2;;;1.4;;
68375;SDS011;55318;52.068;5.188;2023-10-19T05:24:23;1.9;;;1.0;;
68375;SDS011;55318;52.068;5.188;2023-10-19T05:27:37;4.41;;;1.2;;
68375;SDS011;55318;52.068;5.188;2023-10-19T05:29:13;1.7;;;0.8;;
68375;SDS011;55318;52.068;5.188;2023-10-19T05:30:49;0.9;;;0.6;;
68375;SDS011;55318;52.068;5.188;2023-10-19T05:34:01;2.0;;;0.9;;
68375;SDS011;55318;52.068;5.188;2023-10-19T05:35:37;2.9;;;1.0;;
68375;SDS011;55318;52.068;5.188;2023-10-19T05:37:14;2.4;;;1.11;;
68375;SDS011;55318;52.068;5.188;2023-10-19T05:40:26;2.8;;;0.8;;
68375;SDS011;55318;52.068;5.188;2023-10-19T05:42:02;2.31;;;0.9;;
68375;SDS011;55318;52.068;5.188;2023-10-19T05:43:38;4.5;;;1.4;;
68375;SDS011;55318;52.068;5.188;2023-10-19T05:45:14;2.0;;;0.9;;
68375;SDS011;55318;52.068;5.188;2023-10-19T05:48:28;1.8;;;1.0;;
68375;SDS011;55318;52.068;5.188;2023-10-19T05:50:04;3.0;;;1.0;;
68375;SDS011;55318;52.068;5.188;2023-10-19T05:51:41;2.8;;;0.8;;
68375;SDS011;55318;52.068;5.188;2023-10-19T05:54:53;1.9;;;1.11;;
68375;SDS011;55318;52.068;5.188;2023-10-19T05:56:29;3.0;;;0.9;;
68375;SDS011;55318;52.068;5.188;2023-10-19T05:58:06;3.7;;;0.9;;
68375;SDS011;55318;52.068;5.188;2023-10-19T06:01:19;2.4;;;0.9;;
68375;SDS011;55318;52.068;5.188;2023-10-19T06:02:55;2.8;;;1.2;;
68375;SDS011;55318;52.068;5.188;2023-10-19T06:04:32;2.0;;;1.2;;
68375;SDS011;55318;52.068;5.188;2023-10-19T06:06:08;3.4;;;1.3;;
68375;SDS011;55318;52.068;5.188;2023-10-19T06:09:21;3.0;;;1.11;;
68375;SDS011;55318;52.068;5.188;2023-10-19T06:10:57;2.6;;;1.2;;
68375;SDS011;55318;52.068;5.188;2023-10-19T06:12:33;4.5;;;1.7;;
68375;SDS011;55318;52.068;5.188;2023-10-19T06:15:46;1.9;;;1.11;;
68375;SDS011;55318;52.068;5.188;2023-10-19T06:17:24;2.1;;;1.0;;
68375;SDS011;55318;52.068;5.188;2023-10-19T06:19:00;3.3;;;1.2;;
68375;SDS011;55318;52.068;5.188;2023-10-19T06:22:12;3.5;;;1.2;;
68375;SDS011;55318;52.068;5.188;2023-10-19T06:23:48;4.41;;;1.8;;
68375;SDS011;55318;52.068;5.188;2023-10-19T06:25:24;3.7;;;1.3;;
68375;SDS011;55318;52.068;5.188;2023-10-19T06:28:36;4.2;;;1.0;;
68375;SDS011;55318;52.068;5.188;2023-10-19T06:30:13;1.3;;;0.9;;
68375;SDS011;55318;52.068;5.188;2023-10-19T06:31:50;2.9;;;1.0;;
68375;SDS011;55318;52.068;5.188;2023-10-19T06:33:26;2.5;;;0.9;;
68375;SDS011;55318;52.068;5.188;2023-10-19T06:36:38;9.31;;;1.7;;
68375;SDS011;55318;52.068;5.188;2023-10-19T06:38:14;2.8;;;0.9;;
68375;SDS011;55318;52.068;5.188;2023-10-19T06:39:50;1.4;;;1.3;;
68375;SDS011;55318;52.068;5.188;2023-10-19T06:43:03;2.6;;;1.3;;
68375;SDS011;55318;52.068;5.188;2023-10-19T06:44:40;4.1;;;1.5;;
68375;SDS011;55318;52.068;5.188;2023-10-19T06:46:17;4.0;;;1.5;;
68375;SDS011;55318;52.068;5.188;2023-10-19T06:49:29;2.0;;;1.0;;
68375;SDS011;55318;52.068;5.188;2023-10-19T06:51:05;2.31;;;1.4;;
68375;SDS011;55318;52.068;5.188;2023-10-19T06:52:41;2.4;;;1.5;;
68375;SDS011;55318;52.068;5.188;2023-10-19T06:54:18;2.9;;;1.3;;
68375;SDS011;55318;52.068;5.188;2023-10-19T06:57:30;1.8;;;1.11;;
68375;SDS011;55318;52.068;5.188;2023-10-19T06:59:08;2.7;;;1.7;;
68375;SDS011;55318;52.068;5.188;2023-10-19T07:00:44;2.5;;;1.3;;
68375;SDS011;55318;52.068;5.188;2023-10-19T07:03:56;6.2;;;2.4;;
68375;SDS011;55318;52.068;5.188;2023-10-19T07:05:32;9.0;;;2.1;;
68375;SDS011;55318;52.068;5.188;2023-10-19T07:07:08;4.91;;;1.7;;
68375;SDS011;55318;52.068;5.188;2023-10-19T07:10:20;3.0;;;1.6;;
68375;SDS011;55318;52.068;5.188;2023-10-19T07:11:56;3.1;;;1.0;;
68375;SDS011;55318;52.068;5.188;2023-10-19T07:13:33;2.7;;;1.3;;
68375;SDS011;55318;52.068;5.188;2023-10-19T07:15:09;4.0;;;1.2;;
68375;SDS011;55318;52.068;5.188;2023-10-19T07:18:22;4.8;;;1.8;;
68375;SDS011;55318;52.068;5.188;2023-10-19T07:19:58;4.61;;;1.4;;
68375;SDS011;55318;52.068;5.188;2023-10-19T07:21:34;3.3;;;1.5;;
68375;SDS011;55318;52.068;5.188;2023-10-19T07:24:46;3.6;;;1.5;;
68375;SDS011;55318;52.068;5.188;2023-10-19T07:26:22;2.6;;;1.2;;
68375;SDS011;55318;52.068;5.188;2023-10-19T07:27:58;5.0;;;1.8;;
68375;SDS011;55318;52.068;5.188;2023-10-19T07:31:11;3.9;;;1.7;;
68375;SDS011;55318;52.068;5.188;2023-10-19T07:32:48;3.5;;;1.6;;
68375;SDS011;55318;52.068;5.188;2023-10-19T07:34:24;3.5;;;1.11;;
68375;SDS011;55318;52.068;5.188;2023-10-19T07:37:36;4.7;;;1.6;;
68375;SDS011;55318;52.068;5.188;2023-10-19T07:39:12;3.8;;;1.4;;
68375;SDS011;55318;52.068;5.188;2023-10-19T07:40:49;4.1;;;1.6;;
68375;SDS011;55318;52.068;5.188;2023-10-19T07:42:26;3.5;;;1.4;;
68375;SDS011;55318;52.068;5.188;2023-10-19T07:45:39;4.41;;;1.5;;
68375;SDS011;55318;52.068;5.188;2023-10-19T07:47:15;8.0;;;2.1;;
68375;SDS011;55318;52.068;5.188;2023-10-19T07:48:52;4.61;;;2.21;;
68375;SDS011;55318;52.068;5.188;2023-10-19T07:52:04;6.3;;;2.4;;
68375;SDS011;55318;52.068;5.188;2023-10-19T07:53:40;5.7;;;1.9;;
68375;SDS011;55318;52.068;5.188;2023-10-19T07:55:17;2.5;;;1.2;;
68375;SDS011;55318;52.068;5.188;2023-10-19T07:58:31;4.8;;;2.31;;
68375;SDS011;55318;52.068;5.188;2023-10-19T08:00:07;2.31;;;1.5;;
68375;SDS011;55318;52.068;5.188;2023-10-19T08:01:45;6.3;;;1.6;;
68375;SDS011;55318;52.068;5.188;2023-10-19T08:03:21;3.8;;;1.4;;
68375;SDS011;55318;52.068;5.188;2023-10-19T08:06:33;3.7;;;1.2;;
68375;SDS011;55318;52.068;5.188;2023-10-19T08:08:10;6.3;;;1.4;;
68375;SDS011;55318;52.068;5.188;2023-10-19T08:09:46;7.7;;;1.5;;
68375;SDS011;55318;52.068;5.188;2023-10-19T08:12:59;3.0;;;1.3;;
68375;SDS011;55318;52.068;5.188;2023-10-19T08:14:36;4.61;;;1.7;;
68375;SDS011;55318;52.068;5.188;2023-10-19T08:16:13;1.8;;;1.4;;
68375;SDS011;55318;52.068;5.188;2023-10-19T08:19:28;4.61;;;1.5;;
68375;SDS011;55318;52.068;5.188;2023-10-19T08:21:04;7.0;;;1.9;;
68375;SDS011;55318;52.068;5.188;2023-10-19T08:22:40;3.6;;;1.5;;
68375;SDS011;55318;52.068;5.188;2023-10-19T08:24:17;3.3;;;1.5;;
68375;SDS011;55318;52.068;5.188;2023-10-19T08:27:31;11.7;;;1.9;;
68375;SDS011;55318;52.068;5.188;2023-10-19T08:29:07;3.0;;;1.4;;
68375;SDS011;55318;52.068;5.188;2023-10-19T08:30:43;2.31;;;1.11;;
68375;SDS011;55318;52.068;5.188;2023-10-19T08:33:57;2.9;;;1.4;;
68375;SDS011;55318;52.068;5.188;2023-10-19T08:35:34;5.2;;;2.1;;
68375;SDS011;55318;52.068;5.188;2023-10-19T08:37:10;3.4;;;1.3;;
68375;SDS011;55318;52.068;5.188;2023-10-19T08:40:22;4.0;;;1.8;;
68375;SDS011;55318;52.068;5.188;2023-10-19T08:42:01;4.41;;;1.3;;
68375;SDS011;55318;52.068;5.188;2023-10-19T08:43:38;3.8;;;1.6;;
68375;SDS011;55318;52.068;5.188;2023-10-19T08:45:14;3.2;;;1.6;;
68375;SDS011;55318;52.068;5.188;2023-10-19T08:48:27;2.9;;;2.0;;
68375;SDS011;55318;52.068;5.188;2023-10-19T08:50:04;3.9;;;1.6;;
68375;SDS011;55318;52.068;5.188;2023-10-19T08:51:43;3.2;;;1.11;;
68375;SDS011;55318;52.068;5.188;2023-10-19T08:54:58;4.91;;;1.6;;
68375;SDS011;55318;52.068;5.188;2023-10-19T08:56:34;5.3;;;1.8;;
68375;SDS011;55318;52.068;5.188;2023-10-19T08:58:10;4.61;;;1.8;;
68375;SDS011;55318;52.068;5.188;2023-10-19T08:59:46;5.9;;;1.8;;
68375;SDS011;55318;52.068;5.188;2023-10-19T09:02:58;4.3;;;1.4;;
68375;SDS011;55318;52.068;5.188;2023-10-19T09:04:40;7.6;;;1.8;;
68375;SDS011;55318;52.068;5.188;2023-10-19T09:06:17;5.0;;;1.3;;
68375;SDS011;55318;52.068;5.188;2023-10-19T09:09:31;2.21;;;1.5;;
68375;SDS011;55318;52.068;5.188;2023-10-19T09:11:07;3.9;;;1.7;;
68375;SDS011;55318;52.068;5.188;2023-10-19T09:12:45;3.1;;;2.1;;
68375;SDS011;55318;52.068;5.188;2023-10-19T09:14:35;2.0;;;1.8;;
68375;SDS011;55318;52.068;5.188;2023-10-19T09:17:49;5.9;;;1.9;;
68375;SDS011;55318;52.068;5.188;2023-10-19T09:19:35;4.3;;;2.21;;
68375;SDS011;55318;52.068;5.188;2023-10-19T09:21:15;4.3;;;2.21;;
68375;SDS011;55318;52.068;5.188;2023-10-19T09:22:52;2.9;;;1.5;;
68375;SDS011;55318;52.068;5.188;2023-10-19T09:26:05;4.41;;;2.1;;
68375;SDS011;55318;52.068;5.188;2023-10-19T09:27:41;4.7;;;1.9;;
68375;SDS011;55318;52.068;5.188;2023-10-19T09:29:18;8.71;;;2.4;;
68375;SDS011;55318;52.068;5.188;2023-10-19T09:32:31;2.21;;;1.6;;
68375;SDS011;55318;52.068;5.188;2023-10-19T09:34:08;3.7;;;1.7;;
68375;SDS011;55318;52.068;5.188;2023-10-19T09:35:45;6.1;;;1.5;;
68375;SDS011;55318;52.068;5.188;2023-10-19T09:38:59;7.3;;;2.21;;
68375;SDS011;55318;52.068;5.188;2023-10-19T09:40:36;5.7;;;1.4;;
68375;SDS011;55318;52.068;5.188;2023-10-19T09:42:12;6.3;;;1.6;;
68375;SDS011;55318;52.068;5.188;2023-10-19T09:43:52;3.4;;;2.31;;
68375;SDS011;55318;52.068;5.188;2023-10-19T09:47:09;5.2;;;2.21;;
68375;SDS011;55318;52.068;5.188;2023-10-19T09:48:48;8.81;;;3.3;;
68375;SDS011;55318;52.068;5.188;2023-10-19T09:50:24;4.0;;;1.9;;
68375;SDS011;55318;52.068;5.188;2023-10-19T09:53:39;2.0;;;1.6;;
68375;SDS011;55318;52.068;5.188;2023-10-19T09:55:19;4.1;;;1.8;;
68375;SDS011;55318;52.068;5.188;2023-10-19T09:57:01;4.41;;;1.6;;
68375;SDS011;55318;52.068;5.188;2023-10-19T09:58:46;6.2;;;2.1;;
68375;SDS011;55318;52.068;5.188;2023-10-19T10:00:26;7.0;;;2.4;;
68375;SDS011;55318;52.068;5.188;2023-10-19T10:03:42;9.31;;;2.0;;
68375;SDS011;55318;52.068;5.188;2023-10-19T10:05:57;9.31;;;2.0;;
68375;SDS011;55318;52.068;5.188;2023-10-19T10:07:33;5.0;;;1.8;;
68375;SDS011;55318;52.068;5.188;2023-10-19T10:09:09;3.9;;;1.7;;
68375;SDS011;55318;52.068;5.188;2023-10-19T10:12:23;4.5;;;2.1;;
68375;SDS011;55318;52.068;5.188;2023-10-19T10:14:00;4.1;;;1.8;;
68375;SDS011;55318;52.068;5.188;2023-10-19T10:15:57;6.0;;;2.4;;
68375;SDS011;55318;52.068;5.188;2023-10-19T10:17:35;3.6;;;1.9;;
68375;SDS011;55318;52.068;5.188;2023-10-19T10:21:04;4.3;;;1.8;;
68375;SDS011;55318;52.068;5.188;2023-10-19T10:22:41;3.2;;;1.9;;
68375;SDS011;55318;52.068;5.188;2023-10-19T10:24:17;5.6;;;2.0;;
68375;SDS011;55318;52.068;5.188;2023-10-19T10:25:55;5.4;;;2.4;;
68375;SDS011;55318;52.068;5.188;2023-10-19T10:29:12;4.41;;;1.8;;
68375;SDS011;55318;52.068;5.188;2023-10-19T10:31:10;4.61;;;2.1;;
68375;SDS011;55318;52.068;5.188;2023-10-19T10:32:56;6.0;;;2.4;;
68375;SDS011;55318;52.068;5.188;2023-10-19T10:34:43;6.0;;;2.4;;
68375;SDS011;55318;52.068;5.188;2023-10-19T10:36:21;3.8;;;1.4;;
68375;SDS011;55318;52.068;5.188;2023-10-19T10:39:35;6.6;;;1.9;;
68375;SDS011;55318;52.068;5.188;2023-10-19T10:41:12;10.21;;;2.6;;
68375;SDS011;55318;52.068;5.188;2023-10-19T10:43:04;5.7;;;1.7;;
68375;SDS011;55318;52.068;5.188;2023-10-19T10:44:42;8.1;;;2.21;;
68375;SDS011;55318;52.068;5.188;2023-10-19T10:47:59;5.2;;;1.5;;
68375;SDS011;55318;52.068;5.188;2023-10-19T10:49:46;9.4;;;2.5;;
68375;SDS011;55318;52.068;5.188;2023-10-19T10:51:25;5.8;;;2.0;;
68375;SDS011;55318;52.068;5.188;2023-10-19T10:53:02;5.0;;;1.8;;
68375;SDS011;55318;52.068;5.188;2023-10-19T10:56:16;3.7;;;1.5;;
68375;SDS011;55318;52.068;5.188;2023-10-19T10:57:54;6.0;;;1.7;;
68375;SDS011;55318;52.068;5.188;2023-10-19T10:59:30;5.7;;;1.6;;
68375;SDS011;55318;52.068;5.188;2023-10-19T11:01:06;7.5;;;2.0;;
68375;SDS011;55318;52.068;5.188;2023-10-19T11:04:21;7.5;;;2.0;;
68375;SDS011;55318;52.068;5.188;2023-10-19T11:06:02;4.5;;;1.7;;
68375;SDS011;55318;52.068;5.188;2023-10-19T11:07:39;5.7;;;2.31;;
68375;SDS011;55318;52.068;5.188;2023-10-19T11:10:52;4.8;;;1.9;;
68375;SDS011;55318;52.068;5.188;2023-10-19T11:12:28;6.9;;;2.21;;
68375;SDS011;55318;52.068;5.188;2023-10-19T11:14:08;2.6;;;1.4;;
68375;SDS011;55318;52.068;5.188;2023-10-19T11:15:48;6.3;;;2.31;;
68375;SDS011;55318;52.068;5.188;2023-10-19T11:19:02;4.91;;;1.9;;
68375;SDS011;55318;52.068;5.188;2023-10-19T11:20:39;4.1;;;1.6;;
68375;SDS011;55318;52.068;5.188;2023-10-19T11:22:15;9.9;;;2.21;;
68375;SDS011;55318;52.068;5.188;2023-10-19T11:25:29;7.8;;;2.31;;
68375;SDS011;55318;52.068;5.188;2023-10-19T11:27:06;6.9;;;1.7;;
68375;SDS011;55318;52.068;5.188;2023-10-19T11:28:43;5.5;;;1.5;;
68375;SDS011;55318;52.068;5.188;2023-10-19T11:32:00;5.9;;;2.1;;
68375;SDS011;55318;52.068;5.188;2023-10-19T11:33:36;4.8;;;1.7;;
68375;SDS011;55318;52.068;5.188;2023-10-19T11:35:12;7.7;;;1.6;;
68375;SDS011;55318;52.068;5.188;2023-10-19T11:36:52;6.5;;;1.9;;
68375;SDS011;55318;52.068;5.188;2023-10-19T11:40:05;6.6;;;2.21;;
68375;SDS011;55318;52.068;5.188;2023-10-19T11:41:41;3.5;;;1.5;;
68375;SDS011;55318;52.068;5.188;2023-10-19T11:43:18;6.4;;;2.5;;
68375;SDS011;55318;52.068;5.188;2023-10-19T11:46:32;5.3;;;1.7;;
68375;SDS011;55318;52.068;5.188;2023-10-19T11:48:09;4.5;;;1.8;;
68375;SDS011;55318;52.068;5.188;2023-10-19T11:49:45;5.7;;;1.4;;
68375;SDS011;55318;52.068;5.188;2023-10-19T11:51:21;6.6;;;2.31;;
68375;SDS011;55318;52.068;5.188;2023-10-19T11:54:33;5.5;;;1.5;;
68375;SDS011;55318;52.068;5.188;2023-10-19T11:56:10;6.0;;;1.9;;
68375;SDS011;55318;52.068;5.188;2023-10-19T11:57:48;5.3;;;1.8;;
68375;SDS011;55318;52.068;5.188;2023-10-19T12:01:01;5.0;;;1.6;;
68375;SDS011;55318;52.068;5.188;2023-10-19T12:02:38;6.9;;;1.8;;
68375;SDS011;55318;52.068;5.188;2023-10-19T12:04:14;4.61;;;2.1;;
68375;SDS011;55318;52.068;5.188;2023-10-19T12:07:28;5.4;;;2.0;;
68375;SDS011;55318;52.068;5.188;2023-10-19T12:09:04;2.21;;;1.5;;
68375;SDS011;55318;52.068;5.188;2023-10-19T12:10:40;5.2;;;2.31;;
68375;SDS011;55318;52.068;5.188;2023-10-19T12:12:16;5.3;;;1.9;;
68375;SDS011;55318;52.068;5.188;2023-10-19T12:15:30;6.6;;;1.8;;
68375;SDS011;55318;52.068;5.188;2023-10-19T12:17:06;7.2;;;2.0;;
68375;SDS011;55318;52.068;5.188;2023-10-19T12:18:42;6.1;;;1.6;;
68375;SDS011;55318;52.068;5.188;2023-10-19T12:21:55;6.7;;;2.1;;
68375;SDS011;55318;52.068;5.188;2023-10-19T12:23:32;5.4;;;1.4;;
68375;SDS011;55318;52.068;5.188;2023-10-19T12:25:09;3.5;;;1.7;;
68375;SDS011;55318;52.068;5.188;2023-10-19T12:28:21;8.71;;;2.1;;
68375;SDS011;55318;52.068;5.188;2023-10-19T12:29:58;13.0;;;2.31;;
68375;SDS011;55318;52.068;5.188;2023-10-19T12:31:34;4.5;;;2.31;;
68375;SDS011;55318;52.068;5.188;2023-10-19T12:33:11;5.6;;;1.9;;
68375;SDS011;55318;52.068;5.188;2023-10-19T12:36:23;3.8;;;1.5;;
68375;SDS011;55318;52.068;5.188;2023-10-19T12:37:59;5.9;;;1.9;;
68375;SDS011;55318;52.068;5.188;2023-10-19T12:39:35;5.3;;;2.21;;
68375;SDS011;55318;52.068;5.188;2023-10-19T12:42:48;5.6;;;1.8;;
68375;SDS011;55318;52.068;5.188;2023-10-19T12:44:24;4.91;;;1.8;;
68375;SDS011;55318;52.068;5.188;2023-10-19T12:46:01;6.5;;;1.7;;
68375;SDS011;55318;52.068;5.188;2023-10-19T12:49:13;8.0;;;1.9;;
68375;SDS011;55318;52.068;5.188;2023-10-19T12:50:49;6.0;;;2.1;;
68375;SDS011;55318;52.068;5.188;2023-10-19T12:52:25;7.2;;;1.6;;
68375;SDS011;55318;52.068;5.188;2023-10-19T12:55:38;2.6;;;1.4;;
68375;SDS011;55318;52.068;5.188;2023-10-19T12:57:14;4.91;;;1.7;;